createdAt,value
2023-04-02T00:00:15.792Z,55.97
2023-04-02T00:03:22.356Z,55.92
2023-04-02T00:06:32.798Z,55.85
2023-04-02T00:09:38.725Z,55.37
2023-04-02T00:12:41.146Z,55.38
2023-04-02T00:15:46.849Z,55.70
2023-04-02T00:18:52.963Z,57.61
2023-04-02T00:21:57.653Z,56.95
2023-04-02T00:25:01.735Z,56.78
2023-04-02T00:28:04.400Z,57.10
2023-04-02T00:31:10.752Z,57.74
2023-04-02T00:34:34.146Z,58.70
2023-04-02T00:37:39.496Z,58.18
2023-04-02T00:40:42.486Z,59.01
2023-04-02T00:43:47.070Z,58.06
2023-04-02T00:46:50.259Z,57.88
2023-04-02T00:50:00.215Z,57.35
2023-04-02T00:53:10.708Z,57.46
2023-04-02T00:56:20.946Z,57.33
2023-04-02T00:59:29.427Z,56.72
2023-04-02T01:02:33.368Z,56.03
2023-04-02T01:05:36.290Z,56.59
2023-04-02T01:09:01.748Z,56.63
2023-04-02T01:12:11.092Z,56.36
2023-04-02T01:15:47.498Z,55.66
2023-04-02T01:18:50.418Z,56.33
2023-04-02T01:22:08.151Z,56.05
2023-04-02T01:25:15.631Z,55.76
2023-04-02T01:28:21.136Z,55.55
2023-04-02T01:31:24.097Z,55.81
2023-04-02T01:34:27.417Z,55.63
2023-04-02T01:37:44.925Z,55.26
2023-04-02T01:40:50.301Z,56.21
2023-04-02T01:44:01.581Z,56.74
2023-04-02T01:47:06.512Z,55.91
2023-04-02T01:50:12.398Z,55.83
2023-04-02T01:53:17.315Z,56.67
2023-04-02T01:56:21.374Z,56.26
2023-04-02T01:59:24.273Z,56.48
2023-04-02T02:02:32.691Z,57.38
2023-04-02T02:05:35.294Z,56.62
2023-04-02T02:08:39.832Z,56.83
2023-04-02T02:11:44.492Z,57.91
2023-04-02T02:14:52.219Z,57.75
2023-04-02T02:18:01.296Z,57.19
2023-04-02T02:21:05.313Z,57.60
2023-04-02T02:24:17.539Z,57.30
2023-04-02T02:27:22.885Z,56.57
2023-04-02T02:30:33.375Z,57.45
2023-04-02T02:33:42.688Z,57.44
2023-04-02T02:37:00.169Z,57.50
2023-04-02T02:40:06.167Z,57.88
2023-04-02T02:43:10.814Z,57.79
2023-04-02T02:46:17.905Z,57.91
2023-04-02T02:49:32.944Z,58.37
2023-04-02T02:52:39.157Z,58.17
2023-04-02T02:55:48.550Z,58.13
2023-04-02T02:59:00.268Z,58.53
2023-04-02T03:02:09.104Z,58.47
2023-04-02T03:05:22.836Z,58.43
2023-04-02T03:08:40.559Z,58.09
2023-04-02T03:11:57.673Z,58.79
2023-04-02T03:15:06.904Z,58.50
2023-04-02T03:18:31.279Z,58.34
2023-04-02T03:21:38.284Z,58.84
2023-04-02T03:24:53.817Z,58.60
2023-04-02T03:28:02.099Z,58.54
2023-04-02T03:31:20.103Z,59.34
2023-04-02T03:34:28.930Z,58.86
2023-04-02T03:37:48.488Z,59.13
2023-04-02T03:41:05.479Z,58.94
2023-04-02T03:44:31.791Z,58.77
2023-04-02T03:47:34.716Z,60.07
2023-04-02T03:50:46.284Z,59.32
2023-04-02T03:53:49.121Z,59.87
2023-04-02T03:56:52.517Z,59.17
2023-04-02T04:00:16.523Z,59.73
2023-04-02T04:03:26.964Z,59.14
2023-04-02T04:06:33.039Z,58.69
2023-04-02T04:09:38.422Z,59.29
2023-04-02T04:12:44.310Z,60.32
2023-04-02T04:16:17.736Z,59.47
2023-04-02T04:19:45.677Z,59.80
2023-04-02T04:22:55.786Z,59.95
2023-04-02T04:26:09.738Z,59.49
2023-04-02T04:29:13.718Z,59.61
2023-04-02T04:32:32.252Z,59.76
2023-04-02T04:35:40.408Z,59.26
2023-04-02T04:38:55.651Z,59.91
2023-04-02T04:42:01.332Z,59.29
2023-04-02T04:45:12.826Z,59.46
2023-04-02T04:48:30.020Z,59.06
2023-04-02T04:51:48.702Z,59.47
2023-04-02T04:54:51.216Z,59.01
2023-04-02T04:58:01.226Z,59.03
2023-04-02T05:01:17.765Z,58.54
2023-04-02T05:04:20.197Z,58.70
2023-04-02T05:07:35.584Z,58.78
2023-04-02T05:10:46.198Z,58.26
2023-04-02T05:13:53.881Z,58.39
2023-04-02T05:17:05.998Z,57.86
2023-04-02T05:20:36.802Z,58.16
2023-04-02T05:24:01.140Z,57.95
2023-04-02T05:27:29.907Z,57.53
2023-04-02T05:30:49.743Z,58.20
2023-04-02T05:33:56.293Z,58.03
2023-04-02T05:36:59.006Z,58.02
2023-04-02T05:40:13.644Z,58.05
2023-04-02T05:43:19.499Z,58.36
2023-04-02T05:46:27.364Z,58.39
2023-04-02T05:49:36.037Z,57.81
2023-04-02T05:53:09.860Z,57.10
2023-04-02T05:56:19.095Z,57.39
2023-04-02T05:59:37.128Z,55.71
2023-04-02T06:02:53.198Z,55.03
2023-04-02T06:06:03.954Z,55.96
2023-04-02T06:09:12.161Z,54.39
2023-04-02T06:12:29.232Z,54.10
2023-04-02T06:15:32.989Z,53.39
2023-04-02T06:18:42.131Z,51.98
2023-04-02T06:21:46.461Z,51.60
2023-04-02T06:24:54.113Z,51.62
2023-04-02T06:28:00.628Z,51.62
2023-04-02T06:31:08.906Z,50.99
2023-04-02T06:34:17.760Z,49.49
2023-04-02T06:37:35.004Z,49.42
2023-04-02T06:40:58.899Z,46.93
2023-04-02T06:44:19.794Z,45.96
2023-04-02T06:47:46.026Z,46.18
2023-04-02T06:51:07.389Z,45.33
2023-04-02T06:54:16.062Z,44.83
2023-04-02T06:57:20.276Z,43.16
2023-04-02T07:00:46.176Z,43.41
2023-04-02T07:03:55.050Z,43.65
2023-04-02T07:07:05.381Z,43.86
2023-04-02T07:10:13.016Z,43.42
2023-04-02T07:13:18.150Z,43.06
2023-04-02T07:16:25.511Z,43.20
2023-04-02T07:19:28.471Z,42.87
2023-04-02T07:22:33.336Z,40.62
2023-04-02T07:25:37.692Z,41.45
2023-04-02T07:28:40.174Z,40.75
2023-04-02T07:31:42.624Z,41.95
2023-04-02T07:34:44.992Z,42.71
2023-04-02T07:37:47.297Z,43.03
2023-04-02T07:40:49.999Z,43.01
2023-04-02T07:43:52.337Z,44.62
2023-04-02T07:46:55.151Z,45.35
2023-04-02T07:49:57.600Z,44.61
2023-04-02T07:53:00.321Z,44.94
2023-04-02T07:56:04.118Z,45.23
2023-04-02T07:59:06.512Z,43.48
2023-04-02T08:02:19.501Z,43.47
2023-04-02T08:05:22.677Z,44.11
2023-04-02T08:08:26.091Z,43.85
2023-04-02T08:11:29.754Z,43.94
2023-04-02T08:14:33.898Z,44.40
2023-04-02T08:17:36.445Z,44.32
2023-04-02T08:20:39.523Z,43.74
2023-04-02T08:23:43.026Z,44.03
2023-04-02T08:26:46.582Z,44.55
2023-04-02T08:29:48.896Z,44.75
2023-04-02T08:32:51.291Z,45.11
2023-04-02T08:35:54.026Z,45.87
2023-04-02T08:38:56.757Z,46.31
2023-04-02T08:42:04.568Z,46.09
2023-04-02T08:45:25.112Z,46.22
2023-04-02T08:48:28.220Z,46.57
2023-04-02T08:51:35.796Z,46.03
2023-04-02T08:54:38.181Z,46.05
2023-04-02T08:57:40.568Z,46.18
2023-04-02T09:00:48.346Z,44.36
2023-04-02T09:03:51.954Z,44.16
2023-04-02T09:06:56.002Z,42.59
2023-04-02T09:09:58.342Z,42.18
2023-04-02T09:13:01.090Z,40.42
2023-04-02T09:16:15.947Z,40.21
2023-04-02T09:19:30.889Z,40.41
2023-04-02T09:22:35.188Z,40.43
2023-04-02T09:25:48.518Z,41.82
2023-04-02T09:29:25.800Z,42.24
2023-04-02T09:32:50.136Z,41.59
2023-04-02T09:35:52.545Z,41.97
2023-04-02T09:39:01.546Z,42.85
2023-04-02T09:42:08.280Z,42.96
2023-04-02T09:45:18.288Z,43.24
2023-04-02T09:48:32.779Z,42.78
2023-04-02T09:51:36.638Z,44.09
2023-04-02T09:54:41.835Z,43.99
2023-04-02T09:57:45.537Z,42.75
2023-04-02T10:00:52.581Z,43.87
2023-04-02T10:03:56.118Z,43.89
2023-04-02T10:06:59.127Z,44.81
2023-04-02T10:10:23.958Z,44.75
2023-04-02T10:13:39.619Z,44.93
2023-04-02T10:16:44.526Z,44.24
2023-04-02T10:20:01.295Z,45.16
2023-04-02T10:23:04.932Z,43.48
2023-04-02T10:26:23.848Z,42.78
2023-04-02T10:29:42.078Z,43.30
2023-04-02T10:32:59.504Z,42.00
2023-04-02T10:36:30.443Z,42.32
2023-04-02T10:39:47.778Z,41.92
2023-04-02T10:43:27.573Z,42.78
2023-04-02T10:46:43.904Z,43.18
2023-04-02T10:49:53.616Z,43.05
2023-04-02T10:53:18.896Z,41.50
2023-04-02T10:56:22.907Z,42.60
2023-04-02T10:59:30.516Z,40.67
2023-04-02T11:02:47.553Z,40.33
2023-04-02T11:05:51.805Z,38.15
2023-04-02T11:08:58.256Z,39.33
2023-04-02T11:12:01.153Z,40.74
2023-04-02T11:15:04.101Z,40.18
2023-04-02T11:18:06.651Z,41.05
2023-04-02T11:21:44.920Z,40.27
2023-04-02T11:24:55.590Z,39.53
2023-04-02T11:28:20.558Z,38.91
2023-04-02T11:31:23.022Z,40.82
2023-04-02T11:34:44.209Z,39.79
2023-04-02T11:37:46.554Z,37.21
2023-04-02T11:40:52.126Z,39.23
2023-04-02T11:44:01.077Z,39.17
2023-04-02T11:47:24.538Z,39.88
2023-04-02T11:50:35.347Z,38.42
2023-04-02T11:53:42.352Z,39.55
2023-04-02T11:57:03.446Z,38.17
2023-04-02T12:00:20.977Z,37.96
2023-04-02T12:03:55.643Z,36.19
2023-04-02T12:07:19.532Z,36.25
2023-04-02T12:10:24.815Z,34.86
2023-04-02T12:13:39.433Z,32.94
2023-04-02T12:16:41.922Z,33.77
2023-04-02T12:19:50.429Z,35.48
2023-04-02T12:22:54.556Z,33.44
2023-04-02T12:26:24.490Z,33.98
2023-04-02T12:29:28.272Z,34.59
2023-04-02T12:32:31.360Z,36.31
2023-04-02T12:35:36.531Z,36.99
2023-04-02T12:38:49.194Z,35.40
2023-04-02T12:41:51.795Z,36.27
2023-04-02T12:44:54.365Z,37.30
2023-04-02T12:47:57.935Z,37.41
2023-04-02T12:51:01.383Z,37.29
2023-04-02T12:54:04.082Z,37.94
2023-04-02T12:57:25.415Z,37.67
2023-04-02T13:00:31.113Z,38.43
2023-04-02T13:03:33.814Z,38.63
2023-04-02T13:06:36.560Z,38.49
2023-04-02T13:09:48.450Z,38.63
2023-04-02T13:12:58.188Z,37.35
2023-04-02T13:16:17.790Z,37.84
2023-04-02T13:19:28.900Z,38.59
2023-04-02T13:22:31.975Z,37.55
2023-04-02T13:25:36.537Z,38.54
2023-04-02T13:28:38.909Z,39.59
2023-04-02T13:31:41.548Z,39.38
2023-04-02T13:34:43.914Z,41.24
2023-04-02T13:37:46.335Z,40.78
2023-04-02T13:40:48.837Z,41.60
2023-04-02T13:43:52.374Z,41.22
2023-04-02T13:46:55.793Z,41.10
2023-04-02T13:49:58.206Z,40.12
2023-04-02T13:53:05.751Z,40.10
2023-04-02T13:56:08.504Z,39.73
2023-04-02T13:59:11.043Z,39.81
2023-04-02T14:02:17.764Z,39.24
2023-04-02T14:05:33.240Z,39.46
2023-04-02T14:08:45.637Z,40.45
2023-04-02T14:12:13.181Z,41.83
2023-04-02T14:15:34.428Z,40.14
2023-04-02T14:18:59.503Z,39.33
2023-04-02T14:22:10.890Z,38.77
2023-04-02T14:26:02.806Z,39.79
2023-04-02T14:29:29.469Z,40.07
2023-04-02T14:32:44.203Z,40.16
2023-04-02T14:35:50.071Z,39.87
2023-04-02T14:39:00.807Z,39.22
2023-04-02T14:42:16.718Z,40.62
2023-04-02T14:45:40.894Z,41.06
2023-04-02T14:49:20.412Z,42.89
2023-04-02T14:52:23.913Z,43.32
2023-04-02T14:55:38.019Z,44.80
2023-04-02T14:58:46.972Z,45.34
2023-04-02T15:01:52.454Z,44.84
2023-04-02T15:05:01.737Z,43.57
2023-04-02T15:08:16.126Z,43.21
2023-04-02T15:11:23.976Z,44.26
2023-04-02T15:14:39.334Z,46.61
2023-04-02T15:17:41.693Z,48.45
2023-04-02T15:21:09.274Z,49.01
2023-04-02T15:24:27.377Z,48.21
2023-04-02T15:27:52.925Z,47.96
2023-04-02T15:30:58.962Z,48.49
2023-04-02T15:34:21.625Z,48.58
2023-04-02T15:37:54.856Z,49.34
2023-04-02T15:41:03.222Z,49.98
2023-04-02T15:44:15.656Z,51.49
2023-04-02T15:47:38.623Z,54.59
2023-04-02T15:50:57.756Z,56.25
2023-04-02T15:54:13.512Z,55.65
2023-04-02T15:57:35.226Z,57.87
2023-04-02T16:00:48.638Z,59.31
2023-04-02T16:04:13.934Z,63.20
2023-04-02T16:07:49.938Z,63.68
2023-04-02T16:10:52.317Z,63.79
2023-04-02T16:14:03.785Z,66.20
2023-04-02T16:17:25.361Z,64.01
2023-04-02T16:20:32.590Z,65.31
2023-04-02T16:23:37.572Z,64.17
2023-04-02T16:26:42.685Z,63.84
2023-04-02T16:29:59.129Z,64.25
2023-04-02T16:33:22.101Z,64.64
2023-04-02T16:36:39.669Z,64.56
2023-04-02T16:39:51.565Z,65.46
2023-04-02T16:43:40.415Z,65.78
2023-04-02T16:46:48.841Z,66.88
2023-04-02T16:50:01.856Z,65.42
2023-04-02T16:53:22.294Z,66.77
2023-04-02T16:56:58.985Z,68.41
2023-04-02T17:00:18.328Z,66.46
2023-04-02T17:03:37.754Z,64.82
2023-04-02T17:06:43.224Z,64.29
2023-04-02T17:09:48.514Z,66.49
2023-04-02T17:13:27.530Z,66.29
2023-04-02T17:16:39.252Z,67.20
2023-04-02T17:19:43.959Z,67.59
2023-04-02T17:22:47.514Z,66.69
2023-04-02T17:26:09.142Z,66.76
2023-04-02T17:29:19.565Z,66.22
2023-04-02T17:32:26.823Z,67.63
2023-04-02T17:35:35.220Z,67.77
2023-04-02T17:38:44.781Z,68.14
2023-04-02T17:42:11.166Z,65.52
2023-04-02T17:45:32.605Z,59.37
2023-04-02T17:48:42.531Z,59.84
2023-04-02T17:51:57.093Z,58.83
2023-04-02T17:55:14.626Z,55.11
2023-04-02T17:58:43.170Z,55.35
2023-04-02T18:01:53.048Z,54.75
2023-04-02T18:05:09.061Z,52.47
2023-04-02T18:08:37.522Z,54.69
2023-04-02T18:12:01.848Z,53.80
2023-04-02T18:15:16.507Z,54.24
2023-04-02T18:18:55.894Z,55.31
2023-04-02T18:22:07.410Z,53.58
2023-04-02T18:25:19.068Z,53.15
2023-04-02T18:28:40.056Z,53.28
2023-04-02T18:32:19.648Z,51.97
2023-04-02T18:35:59.725Z,51.71
2023-04-02T18:39:02.045Z,52.61
2023-04-02T18:42:13.946Z,51.66
2023-04-02T18:45:24.468Z,51.43
2023-04-02T18:48:42.171Z,51.67
2023-04-02T18:51:44.697Z,54.01
2023-04-02T18:54:52.180Z,53.47
2023-04-02T18:58:01.586Z,51.97
2023-04-02T19:01:06.184Z,52.29
2023-04-02T19:04:26.631Z,52.94
2023-04-02T19:07:29.947Z,51.38
2023-04-02T19:10:34.762Z,51.21
2023-04-02T19:13:37.061Z,50.18
2023-04-02T19:17:01.926Z,50.84
2023-04-02T19:20:08.864Z,52.20
2023-04-02T19:23:37.613Z,50.84
2023-04-02T19:26:51.631Z,50.97
2023-04-02T19:30:25.006Z,52.25
2023-04-02T19:34:03.040Z,49.92
2023-04-02T19:37:16.841Z,52.11
2023-04-02T19:40:43.725Z,51.32
2023-04-02T19:43:46.138Z,51.93
2023-04-02T19:46:49.079Z,52.03
2023-04-02T19:49:51.612Z,51.56
2023-04-02T19:52:53.910Z,51.96
2023-04-02T19:55:57.611Z,53.23
2023-04-02T19:59:02.420Z,51.36
2023-04-02T20:02:13.285Z,51.21
2023-04-02T20:05:15.883Z,52.04
2023-04-02T20:08:18.448Z,50.23
2023-04-02T20:11:21.006Z,50.82
2023-04-02T20:14:23.328Z,49.51
2023-04-02T20:17:25.710Z,51.52
2023-04-02T20:20:28.140Z,51.83
2023-04-02T20:23:30.474Z,51.45
2023-04-02T20:26:32.748Z,52.27
2023-04-02T20:29:35.006Z,50.36
2023-04-02T20:32:38.050Z,52.73
2023-04-02T20:35:41.351Z,49.49
2023-04-02T20:38:45.448Z,51.97
2023-04-02T20:41:48.033Z,51.05
2023-04-02T20:44:50.526Z,53.40
2023-04-02T20:47:52.914Z,53.58
2023-04-02T20:50:55.339Z,53.34
2023-04-02T20:53:57.864Z,55.14
2023-04-02T20:57:00.349Z,54.62
2023-04-02T21:00:05.809Z,54.53
2023-04-02T21:03:10.039Z,53.11
2023-04-02T21:06:17.591Z,54.50
2023-04-02T21:09:21.387Z,53.59
2023-04-02T21:12:25.044Z,54.99
2023-04-02T21:15:27.405Z,55.53
2023-04-02T21:18:30.855Z,52.57
2023-04-02T21:21:34.157Z,53.11
2023-04-02T21:24:36.428Z,52.42
2023-04-02T21:27:38.719Z,52.34
2023-04-02T21:30:41.005Z,52.29
2023-04-02T21:33:46.317Z,52.93
2023-04-02T21:36:50.325Z,53.49
2023-04-02T21:39:52.592Z,55.93
2023-04-02T21:42:55.742Z,55.21
2023-04-02T21:45:59.210Z,57.25
2023-04-02T21:49:02.096Z,56.05
2023-04-02T21:52:04.550Z,56.86
2023-04-02T21:55:07.186Z,57.14
2023-04-02T21:58:09.469Z,55.98
2023-04-02T22:01:23.934Z,57.82
2023-04-02T22:04:30.761Z,60.73
2023-04-02T22:07:33.164Z,61.68
2023-04-02T22:10:35.990Z,61.55
2023-04-02T22:13:39.528Z,62.08
2023-04-02T22:16:42.241Z,61.62
2023-04-02T22:19:44.523Z,63.11
2023-04-02T22:22:46.846Z,62.59
2023-04-02T22:25:49.168Z,62.71
2023-04-02T22:28:52.805Z,64.21
2023-04-02T22:31:55.347Z,64.28
2023-04-02T22:34:57.647Z,64.22
2023-04-02T22:37:59.946Z,64.66
2023-04-02T22:41:13.517Z,63.47
2023-04-02T22:44:15.933Z,63.69
2023-04-02T22:47:18.191Z,63.50
2023-04-02T22:50:20.522Z,64.02
2023-04-02T22:53:23.167Z,63.57
2023-04-02T22:56:28.774Z,64.28
2023-04-02T22:59:31.186Z,62.25
2023-04-02T23:02:33.675Z,62.03
2023-04-02T23:05:36.037Z,60.08
2023-04-02T23:08:38.926Z,60.33
2023-04-02T23:11:41.430Z,56.77
2023-04-02T23:14:43.662Z,55.18
2023-04-02T23:17:46.013Z,54.85
2023-04-02T23:20:48.390Z,54.99
2023-04-02T23:23:51.572Z,52.37
2023-04-02T23:26:54.016Z,52.60
2023-04-02T23:29:56.732Z,51.87
2023-04-02T23:32:59.172Z,53.33
2023-04-02T23:36:21.773Z,53.45
2023-04-02T23:39:24.055Z,53.03
2023-04-02T23:42:27.233Z,53.69
2023-04-02T23:45:30.381Z,53.71
2023-04-02T23:48:32.712Z,51.73
2023-04-02T23:51:35.090Z,53.19
2023-04-02T23:54:37.359Z,52.20
2023-04-02T23:57:39.642Z,53.19
